createdAt,value
2022-09-20T00:01:33.322Z,99297.88
2022-09-20T00:04:05.710Z,99285.84
2022-09-20T00:06:34.452Z,99336.72
2022-09-20T00:09:03.121Z,99385.91
2022-09-20T00:11:34.156Z,99293.34
2022-09-20T00:14:03.677Z,99402.19
2022-09-20T00:16:35.112Z,99349.38
2022-09-20T00:19:06.642Z,99415.06
2022-09-20T00:21:36.291Z,99304.41
2022-09-20T00:24:04.225Z,99269.38
2022-09-20T00:26:31.350Z,99287.00
2022-09-20T00:28:58.877Z,99357.81
2022-09-20T00:31:26.119Z,99215.28
2022-09-20T00:34:16.728Z,99274.22
2022-09-20T00:36:45.117Z,99304.06
2022-09-20T00:39:14.427Z,99439.47
2022-09-20T00:42:59.111Z,99265.41
2022-09-20T00:45:30.481Z,99326.63
2022-09-20T00:48:30.154Z,99373.97
2022-09-20T00:51:06.053Z,99436.88
2022-09-20T00:53:40.780Z,99411.28
2022-09-20T00:56:17.880Z,99255.47
2022-09-20T00:58:51.789Z,99270.63
2022-09-20T01:01:19.004Z,99342.38
2022-09-20T01:03:47.118Z,99260.72
2022-09-20T01:06:16.908Z,99283.22
2022-09-20T01:08:49.980Z,99311.13
2022-09-20T01:11:17.566Z,99237.31
2022-09-20T01:13:44.518Z,99265.22
2022-09-20T01:16:14.388Z,99238.50
2022-09-20T01:18:43.777Z,99296.78
2022-09-20T01:21:11.512Z,99272.47
2022-09-20T01:24:04.371Z,99274.50
2022-09-20T01:26:46.876Z,99300.72
2022-09-20T01:29:53.180Z,99330.00
2022-09-20T01:32:31.108Z,99317.28
2022-09-20T01:35:01.379Z,99290.31
2022-09-20T01:38:09.533Z,99283.94
2022-09-20T01:41:04.139Z,99306.00
2022-09-20T01:44:06.024Z,99289.03
2022-09-20T01:46:36.068Z,99319.50
2022-09-20T01:49:38.473Z,99287.50
2022-09-20T01:52:39.648Z,99331.81
2022-09-20T01:55:27.828Z,99400.69
2022-09-20T01:58:42.301Z,99323.75
2022-09-20T02:01:37.586Z,99391.31
2022-09-20T02:04:35.262Z,99309.66
2022-09-20T02:07:20.458Z,99318.31
2022-09-20T02:10:35.135Z,99291.03
2022-09-20T02:13:23.706Z,99236.66
2022-09-20T02:16:30.593Z,99290.47
2022-09-20T02:19:28.345Z,99323.41
2022-09-20T02:22:36.820Z,99334.94
2022-09-20T02:25:37.908Z,99339.22
2022-09-20T02:28:26.245Z,99386.81
2022-09-20T02:31:15.752Z,99273.03
2022-09-20T02:34:13.693Z,99294.66
2022-09-20T02:37:20.651Z,99378.53
2022-09-20T02:40:48.516Z,99326.06
2022-09-20T02:43:46.643Z,99414.44
2022-09-20T02:46:50.496Z,99288.16
2022-09-20T02:49:59.200Z,99279.16
2022-09-20T02:53:00.081Z,99251.69
2022-09-20T02:56:04.752Z,99337.44
2022-09-20T02:59:04.230Z,99290.63
2022-09-20T03:01:56.292Z,99262.75
2022-09-20T03:04:58.157Z,99298.88
2022-09-20T03:07:43.930Z,99307.44
2022-09-20T03:10:28.165Z,99446.66
2022-09-20T03:13:08.349Z,99263.25
2022-09-20T03:16:01.900Z,99326.38
2022-09-20T03:19:02.683Z,99427.28
2022-09-20T03:21:48.784Z,99304.13
2022-09-20T03:25:05.614Z,99317.97
2022-09-20T03:28:29.799Z,99325.75
2022-09-20T03:31:22.005Z,99314.78
2022-09-20T03:34:32.613Z,99309.19
2022-09-20T03:37:27.165Z,99288.94
2022-09-20T03:40:28.267Z,99385.75
2022-09-20T03:43:25.872Z,99444.78
2022-09-20T03:46:07.411Z,99383.66
2022-09-20T03:49:01.975Z,99397.03
2022-09-20T03:52:09.523Z,99301.06
2022-09-20T03:55:03.468Z,99326.78
2022-09-20T03:57:55.220Z,99304.84
2022-09-20T04:00:45.541Z,99309.19
2022-09-20T04:03:33.914Z,99336.50
2022-09-20T04:06:05.268Z,99364.56
2022-09-20T04:09:09.751Z,99289.13
2022-09-20T04:11:53.520Z,99428.19
2022-09-20T04:14:46.759Z,99438.88
2022-09-20T04:17:34.763Z,99323.97
2022-09-20T04:20:55.354Z,99339.03
2022-09-20T04:23:41.711Z,99348.41
2022-09-20T04:26:09.533Z,99360.47
2022-09-20T04:29:17.316Z,99282.06
2022-09-20T04:32:12.761Z,99429.56
2022-09-20T04:35:41.488Z,99463.19
2022-09-20T04:38:19.068Z,99315.09
2022-09-20T04:41:31.992Z,99399.31
2022-09-20T04:44:17.108Z,99358.41
2022-09-20T04:47:28.472Z,99374.03
2022-09-20T04:50:22.902Z,99338.47
2022-09-20T04:53:30.576Z,99436.75
2022-09-20T04:56:27.704Z,99466.53
2022-09-20T04:59:08.362Z,99390.09
2022-09-20T05:02:19.000Z,99365.91
2022-09-20T05:05:41.487Z,99334.56
2022-09-20T05:08:23.191Z,99380.28
2022-09-20T05:11:19.976Z,99345.03
2022-09-20T05:14:32.890Z,99346.75
2022-09-20T05:17:33.514Z,99391.72
2022-09-20T05:20:31.613Z,99416.09
2022-09-20T05:23:24.091Z,99419.09
2022-09-20T05:26:55.345Z,99396.94
2022-09-20T05:29:39.842Z,99367.31
2022-09-20T05:32:41.247Z,99437.09
2022-09-20T05:35:41.702Z,99455.47
2022-09-20T05:41:10.584Z,99392.81
2022-09-20T05:43:52.724Z,99371.72
2022-09-20T05:46:59.137Z,99431.34
2022-09-20T05:49:47.611Z,99564.69
2022-09-20T05:53:25.852Z,99568.16
2022-09-20T05:56:22.882Z,99561.81
2022-09-20T05:59:17.896Z,99457.72
2022-09-20T06:02:21.729Z,99448.47
2022-09-20T06:04:59.622Z,99652.94
2022-09-20T06:08:03.904Z,99671.34
2022-09-20T06:11:30.729Z,99628.69
2022-09-20T06:14:47.574Z,99644.50
2022-09-20T06:17:43.144Z,99637.66
2022-09-20T06:20:34.273Z,99610.94
2022-09-20T06:23:05.603Z,99680.03
2022-09-20T06:25:41.161Z,99634.41
2022-09-20T06:28:28.388Z,99562.47
2022-09-20T06:30:57.187Z,99665.59
2022-09-20T06:33:29.156Z,99551.16
2022-09-20T06:36:49.791Z,99689.56
2022-09-20T06:39:57.683Z,99677.22
2022-09-20T06:42:27.269Z,99639.50
2022-09-20T06:44:54.566Z,99643.59
2022-09-20T06:47:23.063Z,99666.59
2022-09-20T06:49:50.464Z,99686.66
2022-09-20T06:52:19.856Z,99673.94
2022-09-20T06:54:51.146Z,99675.56
2022-09-20T06:57:35.205Z,99683.69
2022-09-20T07:00:02.670Z,99658.69
2022-09-20T07:02:29.587Z,99656.22
2022-09-20T07:04:59.347Z,99682.44
2022-09-20T07:07:26.997Z,99657.06
2022-09-20T07:09:53.859Z,99662.97
2022-09-20T07:12:21.389Z,99639.78
2022-09-20T07:14:50.651Z,99647.88
2022-09-20T07:17:17.760Z,99703.38
2022-09-20T07:19:44.857Z,99698.38
2022-09-20T07:22:12.844Z,99643.41
2022-09-20T07:24:40.656Z,99676.81
2022-09-20T07:27:07.650Z,99693.72
2022-09-20T07:29:35.580Z,99665.75
2022-09-20T07:32:02.840Z,99653.25
2022-09-20T07:34:29.946Z,99723.16
2022-09-20T07:37:00.053Z,99629.47
2022-09-20T07:39:27.311Z,99693.34
2022-09-20T07:41:54.220Z,99683.41
2022-09-20T07:44:21.958Z,99704.97
2022-09-20T07:46:55.103Z,99717.78
2022-09-20T07:49:22.796Z,99640.38
2022-09-20T07:51:50.437Z,99722.69
2022-09-20T07:54:18.288Z,99722.09
2022-09-20T07:56:46.012Z,99748.97
2022-09-20T07:59:16.311Z,99729.31
2022-09-20T08:01:44.018Z,99756.59
2022-09-20T08:04:11.990Z,99656.22
2022-09-20T08:06:41.606Z,99683.47
2022-09-20T08:09:11.454Z,99721.56
2022-09-20T08:11:40.088Z,99769.31
2022-09-20T08:14:09.046Z,99730.13
2022-09-20T08:16:48.718Z,99784.59
2022-09-20T08:19:20.838Z,99718.34
2022-09-20T08:21:49.950Z,99715.88
2022-09-20T08:24:17.498Z,99733.31
2022-09-20T08:26:45.066Z,99777.66
2022-09-20T08:29:12.525Z,99653.78
2022-09-20T08:31:42.595Z,99722.50
2022-09-20T08:34:12.695Z,99749.03
2022-09-20T08:36:46.382Z,99762.25
2022-09-20T08:42:21.823Z,99678.88
2022-09-20T08:44:58.968Z,99667.63
2022-09-20T08:47:31.302Z,99734.75
2022-09-20T08:50:08.625Z,99712.75
2022-09-20T08:52:39.879Z,99780.19
2022-09-20T08:55:20.092Z,99718.97
2022-09-20T08:57:54.293Z,99712.81
2022-09-20T09:00:26.333Z,99797.03
2022-09-20T09:02:57.916Z,99805.91
2022-09-20T09:05:48.397Z,99676.84
2022-09-20T09:08:20.014Z,99704.97
2022-09-20T09:11:09.490Z,99745.41
2022-09-20T09:14:32.397Z,99757.44
2022-09-20T09:17:00.984Z,99719.38
2022-09-20T09:19:44.044Z,99722.53
2022-09-20T09:22:17.377Z,99775.03
2022-09-20T09:24:44.331Z,99756.34
2022-09-20T09:27:19.489Z,99694.84
2022-09-20T09:29:55.981Z,99756.34
2022-09-20T09:32:33.076Z,99759.13
2022-09-20T09:35:32.239Z,99662.31
2022-09-20T09:38:02.027Z,99672.59
2022-09-20T09:40:32.372Z,99719.69
2022-09-20T09:43:02.711Z,99692.00
2022-09-20T09:45:39.309Z,99766.25
2022-09-20T09:48:25.093Z,99697.97
2022-09-20T09:51:18.385Z,99822.59
2022-09-20T09:53:49.051Z,99726.13
2022-09-20T09:57:05.356Z,99781.72
2022-09-20T09:59:51.348Z,99682.56
2022-09-20T10:02:58.451Z,99790.09
2022-09-20T10:05:57.895Z,99770.97
2022-09-20T10:09:09.265Z,99797.47
2022-09-20T10:12:35.529Z,99706.63
2022-09-20T10:15:21.898Z,99766.25
2022-09-20T10:18:18.424Z,99767.31
2022-09-20T10:21:19.356Z,99751.94
2022-09-20T10:24:05.198Z,99742.34
2022-09-20T10:26:54.833Z,99674.94
2022-09-20T10:30:04.091Z,99784.16
2022-09-20T10:32:50.367Z,99697.72
2022-09-20T10:35:35.215Z,99625.81
2022-09-20T10:38:08.334Z,99741.97
2022-09-20T10:41:20.994Z,99654.16
2022-09-20T10:44:04.244Z,99782.59
2022-09-20T10:46:53.974Z,99696.66
2022-09-20T10:49:51.547Z,99747.63
2022-09-20T10:52:51.059Z,99758.72
2022-09-20T10:56:15.838Z,99753.13
2022-09-20T10:58:58.045Z,99772.16
2022-09-20T11:01:44.391Z,99676.75
2022-09-20T11:05:00.620Z,99835.72
2022-09-20T11:07:58.944Z,99749.47
2022-09-20T11:10:52.739Z,99752.97
2022-09-20T11:13:55.953Z,99779.91
2022-09-20T11:16:29.496Z,99794.06
2022-09-20T11:19:23.574Z,99768.13
2022-09-20T11:22:09.186Z,99745.78
2022-09-20T11:24:56.028Z,99816.31
2022-09-20T11:27:42.460Z,99751.81
2022-09-20T11:30:19.171Z,99749.53
2022-09-20T11:33:18.227Z,99760.94
2022-09-20T11:36:00.269Z,99821.38
2022-09-20T11:38:41.028Z,99730.28
2022-09-20T11:41:23.144Z,99802.97
2022-09-20T11:43:52.869Z,99814.47
2022-09-20T11:46:52.925Z,99707.22
2022-09-20T11:49:41.142Z,99820.34
2022-09-20T11:52:35.448Z,99677.91
2022-09-20T11:55:33.295Z,99738.31
2022-09-20T11:58:04.643Z,99756.78
2022-09-20T12:00:35.888Z,99845.38
2022-09-20T12:03:07.839Z,99820.38
2022-09-20T12:05:41.737Z,99884.69
2022-09-20T12:08:24.580Z,99787.97
2022-09-20T12:11:00.650Z,99798.06
2022-09-20T12:13:28.374Z,99743.72
2022-09-20T12:16:40.008Z,99788.59
2022-09-20T12:19:14.656Z,99771.13
2022-09-20T12:21:59.940Z,99776.06
2022-09-20T12:24:33.939Z,99696.63
2022-09-20T12:27:22.204Z,99746.66
2022-09-20T12:30:16.953Z,99765.38
2022-09-20T12:32:48.617Z,99768.31
2022-09-20T12:35:39.152Z,99648.81
2022-09-20T12:38:21.313Z,99709.34
2022-09-20T12:41:14.372Z,99785.63
2022-09-20T12:43:58.808Z,99724.28
2022-09-20T12:46:58.332Z,99745.47
2022-09-20T12:50:04.759Z,99756.66
2022-09-20T12:52:59.050Z,99711.03
2022-09-20T12:55:46.270Z,99687.16
2022-09-20T12:58:15.791Z,99764.81
2022-09-20T13:00:59.354Z,99708.28
2022-09-20T13:03:36.567Z,99710.59
2022-09-20T13:06:06.523Z,99720.66
2022-09-20T13:08:49.135Z,99668.19
2022-09-20T13:11:39.875Z,99818.22
2022-09-20T13:14:11.036Z,99777.69
2022-09-20T13:16:58.954Z,99738.06
2022-09-20T13:19:47.122Z,99706.88
2022-09-20T13:22:32.967Z,99607.56
2022-09-20T13:25:04.673Z,99689.81
2022-09-20T13:27:40.355Z,99706.41
2022-09-20T13:30:26.933Z,99695.34
2022-09-20T13:32:55.051Z,99694.13
2022-09-20T13:35:25.504Z,99632.66
2022-09-20T13:38:02.088Z,99740.38
2022-09-20T13:40:42.279Z,99700.53
2022-09-20T13:43:56.511Z,99696.63
2022-09-20T13:46:31.087Z,99719.41
2022-09-20T13:49:24.800Z,99636.00
2022-09-20T13:51:52.284Z,99601.53
2022-09-20T13:54:31.392Z,99617.00
2022-09-20T13:57:07.071Z,99648.41
2022-09-20T13:59:43.013Z,99587.66
2022-09-20T14:02:23.670Z,99760.13
2022-09-20T14:04:54.648Z,99760.06
2022-09-20T14:07:26.023Z,99610.53
2022-09-20T14:09:54.136Z,99704.94
2022-09-20T14:12:23.807Z,99762.59
2022-09-20T14:14:52.094Z,99627.78
2022-09-20T14:17:24.263Z,99724.63
2022-09-20T14:19:54.780Z,99746.28
2022-09-20T14:22:27.655Z,99749.06
2022-09-20T14:25:12.512Z,99670.50
2022-09-20T14:27:39.651Z,99627.00
2022-09-20T14:30:27.594Z,99622.44
2022-09-20T14:32:56.932Z,99678.66
2022-09-20T14:35:23.858Z,99629.75
2022-09-20T14:38:00.733Z,99751.03
2022-09-20T14:40:41.639Z,99729.47
2022-09-20T14:43:39.849Z,99622.81
2022-09-20T14:46:35.488Z,99620.75
2022-09-20T14:49:26.587Z,99668.94
2022-09-20T14:51:54.983Z,99701.41
2022-09-20T14:54:26.933Z,99598.72
2022-09-20T14:56:57.913Z,99683.66
2022-09-20T14:59:36.435Z,99672.03
2022-09-20T15:02:14.424Z,99606.56
2022-09-20T15:04:51.748Z,99687.81
2022-09-20T15:07:19.016Z,99660.06
2022-09-20T15:09:45.865Z,99676.72
2022-09-20T15:12:19.596Z,99649.88
2022-09-20T15:14:48.247Z,99594.59
2022-09-20T15:17:18.605Z,99629.81
2022-09-20T15:19:49.452Z,99579.00
2022-09-20T15:22:16.963Z,99732.28
2022-09-20T15:24:44.325Z,99554.94
2022-09-20T15:27:12.959Z,99554.16
2022-09-20T15:29:40.369Z,99519.81
2022-09-20T15:32:10.040Z,99616.69
2022-09-20T15:34:37.217Z,99602.59
2022-09-20T15:37:04.808Z,99619.41
2022-09-20T15:39:33.023Z,99497.88
2022-09-20T15:41:59.954Z,99621.13
2022-09-20T15:44:26.904Z,99532.44
2022-09-20T15:46:54.579Z,99545.09
2022-09-20T15:49:22.353Z,99465.34
2022-09-20T15:51:49.365Z,99625.25
2022-09-20T15:54:17.916Z,99525.09
2022-09-20T15:56:44.805Z,99599.19
2022-09-20T15:59:13.318Z,99631.41
2022-09-20T16:01:43.270Z,99612.34
2022-09-20T16:04:17.267Z,99471.28
2022-09-20T16:06:46.128Z,99589.72
2022-09-20T16:09:13.888Z,99422.19
2022-09-20T16:11:41.025Z,99588.88
2022-09-20T16:14:08.179Z,99503.53
2022-09-20T16:16:40.009Z,99574.88
2022-09-20T16:19:18.149Z,99449.19
2022-09-20T16:21:58.520Z,99565.56
2022-09-20T16:24:29.684Z,99482.66
2022-09-20T16:26:58.031Z,99501.41
2022-09-20T16:29:25.921Z,99537.69
2022-09-20T16:31:54.605Z,99576.13
2022-09-20T16:34:30.700Z,99494.56
2022-09-20T16:37:05.704Z,99531.63
2022-09-20T16:39:33.560Z,99528.19
2022-09-20T16:42:07.428Z,99396.06
2022-09-20T16:44:42.030Z,99477.72
2022-09-20T16:47:20.387Z,99477.41
2022-09-20T16:49:48.338Z,99518.28
2022-09-20T16:52:15.360Z,99444.81
2022-09-20T16:54:42.452Z,99457.41
2022-09-20T16:57:09.548Z,99492.38
2022-09-20T16:59:36.538Z,99423.47
2022-09-20T17:02:03.577Z,99459.13
2022-09-20T17:04:31.684Z,99387.06
2022-09-20T17:06:58.745Z,99489.34
2022-09-20T17:09:26.249Z,99485.66
2022-09-20T17:11:53.742Z,99515.47
2022-09-20T17:14:21.701Z,99446.44
2022-09-20T17:16:49.573Z,99501.22
2022-09-20T17:19:21.151Z,99451.00
2022-09-20T17:21:50.986Z,99413.41
2022-09-20T17:24:22.615Z,99551.97
2022-09-20T17:26:51.178Z,99487.81
2022-09-20T17:29:20.545Z,99471.19
2022-09-20T17:31:54.991Z,99429.25
2022-09-20T17:34:22.849Z,99455.44
2022-09-20T17:36:50.812Z,99485.13
2022-09-20T17:39:18.175Z,99481.53
2022-09-20T17:41:47.652Z,99495.03
2022-09-20T17:44:16.123Z,99441.16
2022-09-20T17:46:45.524Z,99476.78
2022-09-20T17:49:19.512Z,99493.31
2022-09-20T17:51:52.790Z,99442.66
2022-09-20T17:54:21.170Z,99444.19
2022-09-20T17:56:50.779Z,99483.06
2022-09-20T17:59:19.713Z,99394.63
2022-09-20T18:01:50.627Z,99492.81
2022-09-20T18:04:18.420Z,99492.03
2022-09-20T18:06:48.920Z,99467.84
2022-09-20T18:09:22.410Z,99488.75
2022-09-20T18:11:53.018Z,99455.66
2022-09-20T18:14:23.584Z,99553.44
2022-09-20T18:16:58.183Z,99442.03
2022-09-20T18:19:32.188Z,99535.88
2022-09-20T18:21:59.669Z,99511.34
2022-09-20T18:24:26.828Z,99558.94
2022-09-20T18:26:53.729Z,99501.13
2022-09-20T18:29:20.642Z,99500.63
2022-09-20T18:31:50.605Z,99467.00
2022-09-20T18:34:20.724Z,99469.31
2022-09-20T18:36:59.036Z,99570.94
2022-09-20T18:39:29.376Z,99424.97
2022-09-20T18:41:56.408Z,99525.94
2022-09-20T18:44:23.709Z,99510.13
2022-09-20T18:46:54.962Z,99571.63
2022-09-20T18:49:22.784Z,99550.34
2022-09-20T18:51:50.244Z,99414.53
2022-09-20T18:54:18.068Z,99451.66
2022-09-20T18:56:48.515Z,99446.72
2022-09-20T18:59:25.212Z,99542.78
2022-09-20T19:01:55.357Z,99507.88
2022-09-20T19:04:51.810Z,99493.03
2022-09-20T19:07:27.597Z,99465.47
2022-09-20T19:10:46.591Z,99523.06
2022-09-20T19:13:29.516Z,99591.22
2022-09-20T19:16:30.565Z,99532.56
2022-09-20T19:19:37.855Z,99507.44
2022-09-20T19:22:24.139Z,99597.22
2022-09-20T19:25:16.813Z,99501.44
2022-09-20T19:27:44.112Z,99545.94
2022-09-20T19:30:15.960Z,99492.53
2022-09-20T19:32:45.162Z,99510.00
2022-09-20T19:35:27.155Z,99545.72
2022-09-20T19:38:15.382Z,99593.16
2022-09-20T19:41:08.802Z,99491.06
2022-09-20T19:43:59.488Z,99589.97
2022-09-20T19:46:48.153Z,99479.91
2022-09-20T19:49:58.719Z,99598.81
2022-09-20T19:52:26.098Z,99593.38
2022-09-20T19:54:53.659Z,99542.91
2022-09-20T19:57:33.604Z,99534.66
2022-09-20T20:00:01.157Z,99644.91
2022-09-20T20:02:28.378Z,99626.91
2022-09-20T20:04:55.887Z,99506.22
2022-09-20T20:07:36.875Z,99584.75
2022-09-20T20:10:32.466Z,99541.59
2022-09-20T20:13:32.856Z,99621.91
2022-09-20T20:16:10.940Z,99529.22
2022-09-20T20:19:19.096Z,99525.94
2022-09-20T20:22:17.719Z,99569.56
2022-09-20T20:24:53.572Z,99568.03
2022-09-20T20:27:21.331Z,99543.34
2022-09-20T20:29:49.650Z,99618.91
2022-09-20T20:32:16.790Z,99557.13
2022-09-20T20:34:43.673Z,99652.19
2022-09-20T20:37:10.840Z,99606.66
2022-09-20T20:39:37.710Z,99502.09
2022-09-20T20:42:06.220Z,99565.44
2022-09-20T20:44:37.253Z,99574.50
2022-09-20T20:47:06.453Z,99645.09
2022-09-20T20:49:34.029Z,99553.94
2022-09-20T20:52:04.933Z,99535.28
2022-09-20T20:54:32.683Z,99658.94
2022-09-20T20:56:59.957Z,99564.59
2022-09-20T20:59:27.078Z,99534.25
2022-09-20T21:01:54.081Z,99692.56
2022-09-20T21:04:21.895Z,99555.00
2022-09-20T21:06:50.337Z,99646.16
2022-09-20T21:09:17.264Z,99568.53
2022-09-20T21:11:44.607Z,99564.47
2022-09-20T21:14:12.873Z,99632.06
2022-09-20T21:16:43.226Z,99571.22
2022-09-20T21:19:16.759Z,99614.59
2022-09-20T21:21:46.138Z,99643.00
2022-09-20T21:24:17.255Z,99653.38
2022-09-20T21:26:46.138Z,99652.78
2022-09-20T21:29:15.664Z,99605.19
2022-09-20T21:31:46.682Z,99691.81
2022-09-20T21:34:15.751Z,99611.03
2022-09-20T21:36:44.774Z,99587.00
2022-09-20T21:39:12.627Z,99585.94
2022-09-20T21:41:40.240Z,99694.91
2022-09-20T21:44:10.649Z,99565.63
2022-09-20T21:46:40.585Z,99562.97
2022-09-20T21:49:12.031Z,99624.97
2022-09-20T21:51:42.177Z,99605.06
2022-09-20T21:54:09.493Z,99572.59
2022-09-20T21:56:38.303Z,99643.44
2022-09-20T21:59:06.411Z,99632.66
2022-09-20T22:01:39.989Z,99674.56
2022-09-20T22:04:10.150Z,99591.50
2022-09-20T22:06:44.931Z,99707.47
2022-09-20T22:09:16.325Z,99594.16
2022-09-20T22:11:48.759Z,99596.34
2022-09-20T22:14:18.640Z,99540.00
2022-09-20T22:16:47.801Z,99577.19
2022-09-20T22:19:17.130Z,99580.53
2022-09-20T22:21:50.919Z,99598.63
2022-09-20T22:24:18.625Z,99501.63
2022-09-20T22:26:51.320Z,99663.69
2022-09-20T22:29:18.878Z,99675.59
2022-09-20T22:31:48.995Z,99550.56
2022-09-20T22:34:22.052Z,99572.44
2022-09-20T22:36:49.417Z,99574.75
2022-09-20T22:39:17.315Z,99553.19
2022-09-20T22:41:44.891Z,99656.09
2022-09-20T22:44:12.087Z,99590.47
2022-09-20T22:46:39.825Z,99557.44
2022-09-20T22:49:08.555Z,99552.91
2022-09-20T22:51:36.235Z,99646.00
2022-09-20T22:54:10.342Z,99680.16
2022-09-20T22:56:39.351Z,99569.94
2022-09-20T22:59:14.886Z,99529.91
2022-09-20T23:01:44.871Z,99556.28
2022-09-20T23:04:23.273Z,99611.34
2022-09-20T23:06:56.589Z,99594.13
2022-09-20T23:09:26.601Z,99678.41
2022-09-20T23:11:53.710Z,99591.22
2022-09-20T23:14:22.303Z,99507.91
2022-09-20T23:16:49.753Z,99579.63
2022-09-20T23:19:17.015Z,99599.59
2022-09-20T23:21:44.861Z,99582.09
2022-09-20T23:24:14.861Z,99627.34
2022-09-20T23:26:43.497Z,99549.81
2022-09-20T23:29:13.960Z,99652.47
2022-09-20T23:31:46.113Z,99611.84
2022-09-20T23:34:15.109Z,99596.69
2022-09-20T23:36:43.384Z,99523.47
2022-09-20T23:39:11.765Z,99566.75
2022-09-20T23:41:39.474Z,99572.75
2022-09-20T23:44:07.559Z,99543.00
2022-09-20T23:46:34.782Z,99634.84
2022-09-20T23:49:02.673Z,99493.44
2022-09-20T23:51:30.719Z,99502.97
2022-09-20T23:53:58.589Z,99554.00
2022-09-20T23:56:26.411Z,99542.19
2022-09-20T23:58:54.105Z,99545.53
